createdAt,value
2024-03-10T00:00:09.594Z,7.93
2024-03-10T00:03:17.042Z,7.91
2024-03-10T00:06:04.608Z,7.88
2024-03-10T00:08:51.803Z,7.87
2024-03-10T00:11:38.895Z,7.85
2024-03-10T00:14:25.970Z,7.81
2024-03-10T00:17:12.977Z,7.78
2024-03-10T00:19:59.864Z,7.76
2024-03-10T00:22:49.077Z,7.73
2024-03-10T00:25:39.027Z,7.69
2024-03-10T00:28:26.259Z,7.65
2024-03-10T00:31:13.520Z,7.61
2024-03-10T00:34:00.228Z,7.58
2024-03-10T00:36:46.936Z,7.56
2024-03-10T00:39:33.965Z,7.53
2024-03-10T00:42:22.314Z,7.50
2024-03-10T00:45:10.819Z,7.48
2024-03-10T00:47:57.904Z,7.47
2024-03-10T00:50:44.853Z,7.46
2024-03-10T00:53:32.141Z,7.46
2024-03-10T00:56:20.961Z,7.45
2024-03-10T00:59:08.155Z,7.43
2024-03-10T01:01:54.917Z,7.41
2024-03-10T01:04:42.285Z,7.37
2024-03-10T01:07:30.284Z,7.37
2024-03-10T01:10:17.736Z,7.37
2024-03-10T01:13:05.025Z,7.37
2024-03-10T01:15:53.423Z,7.33
2024-03-10T01:18:39.912Z,7.31
2024-03-10T01:21:26.790Z,7.29
2024-03-10T01:24:14.489Z,7.26
2024-03-10T01:27:01.376Z,7.20
2024-03-10T01:29:48.146Z,7.13
2024-03-10T01:32:38.251Z,7.07
2024-03-10T01:35:25.944Z,7.02
2024-03-10T01:38:12.899Z,6.96
2024-03-10T01:41:00.161Z,6.95
2024-03-10T01:43:49.183Z,6.94
2024-03-10T01:46:37.711Z,6.96
2024-03-10T01:49:24.688Z,6.96
2024-03-10T01:52:12.177Z,6.95
2024-03-10T01:54:59.385Z,6.91
2024-03-10T01:57:49.240Z,6.88
2024-03-10T02:00:39.742Z,6.88
2024-03-10T02:03:27.532Z,6.87
2024-03-10T02:06:14.552Z,6.87
2024-03-10T02:09:01.399Z,6.87
2024-03-10T02:11:48.554Z,6.89
2024-03-10T02:14:35.581Z,6.90
2024-03-10T02:17:22.639Z,6.92
2024-03-10T02:20:21.268Z,6.94
2024-03-10T02:23:08.926Z,6.95
2024-03-10T02:25:59.660Z,6.96
2024-03-10T02:29:16.271Z,6.96
2024-03-10T02:32:22.448Z,6.97
2024-03-10T02:35:28.149Z,6.95
2024-03-10T02:38:33.752Z,6.94
2024-03-10T02:41:39.376Z,6.89
2024-03-10T02:44:44.654Z,6.84
2024-03-10T02:47:31.718Z,6.79
2024-03-10T02:50:18.921Z,6.74
2024-03-10T02:53:06.411Z,6.70
2024-03-10T02:55:53.222Z,6.66
2024-03-10T02:58:40.531Z,6.65
2024-03-10T03:01:28.097Z,6.61
2024-03-10T03:04:15.135Z,6.56
2024-03-10T03:07:02.805Z,6.52
2024-03-10T03:09:49.746Z,6.47
2024-03-10T03:12:37.214Z,6.45
2024-03-10T03:15:24.776Z,6.43
2024-03-10T03:18:11.290Z,6.38
2024-03-10T03:20:58.946Z,6.35
2024-03-10T03:23:46.131Z,6.31
2024-03-10T03:26:32.781Z,6.27
2024-03-10T03:29:21.327Z,6.27
2024-03-10T03:32:08.036Z,6.25
2024-03-10T03:34:55.405Z,6.20
2024-03-10T03:37:42.565Z,6.14
2024-03-10T03:40:29.389Z,6.11
2024-03-10T03:43:16.347Z,6.09
2024-03-10T03:46:06.054Z,6.07
2024-03-10T03:48:52.918Z,6.10
2024-03-10T03:51:40.418Z,6.13
2024-03-10T03:54:27.225Z,6.19
2024-03-10T03:57:14.183Z,6.22
2024-03-10T04:00:02.138Z,6.30
2024-03-10T04:02:54.477Z,6.40
2024-03-10T04:05:44.015Z,6.36
2024-03-10T04:08:30.978Z,6.30
2024-03-10T04:11:18.262Z,6.28
2024-03-10T04:14:07.456Z,6.23
2024-03-10T04:16:55.137Z,6.17
2024-03-10T04:19:42.012Z,6.13
2024-03-10T04:22:29.334Z,6.09
2024-03-10T04:25:16.013Z,6.07
2024-03-10T04:28:02.896Z,6.06
2024-03-10T04:30:50.153Z,6.04
2024-03-10T04:33:37.553Z,6.02
2024-03-10T04:36:25.229Z,6.02
2024-03-10T04:39:12.013Z,6.02
2024-03-10T04:41:58.898Z,6.01
2024-03-10T04:44:46.388Z,6.01
2024-03-10T04:47:32.952Z,5.99
2024-03-10T04:50:20.198Z,5.98
2024-03-10T04:53:07.359Z,5.97
2024-03-10T04:55:54.661Z,5.96
2024-03-10T04:58:42.773Z,5.94
2024-03-10T05:01:29.607Z,5.92
2024-03-10T05:04:16.712Z,5.94
2024-03-10T05:07:05.811Z,5.95
2024-03-10T05:09:52.816Z,5.95
2024-03-10T05:12:40.361Z,5.96
2024-03-10T05:15:27.742Z,5.96
2024-03-10T05:18:14.561Z,5.97
2024-03-10T05:21:01.411Z,5.96
2024-03-10T05:23:48.403Z,5.96
2024-03-10T05:26:35.241Z,5.96
2024-03-10T05:29:22.532Z,5.98
2024-03-10T05:32:10.007Z,5.98
2024-03-10T05:34:58.307Z,6.00
2024-03-10T05:37:45.562Z,6.02
2024-03-10T05:40:33.876Z,6.03
2024-03-10T05:43:21.342Z,6.05
2024-03-10T05:46:09.304Z,6.07
2024-03-10T05:48:57.384Z,6.10
2024-03-10T05:51:44.597Z,6.12
2024-03-10T05:54:31.705Z,6.14
2024-03-10T05:57:18.558Z,6.18
2024-03-10T06:00:07.720Z,6.19
2024-03-10T06:03:01.054Z,6.20
2024-03-10T06:05:48.881Z,6.24
2024-03-10T06:08:36.578Z,6.28
2024-03-10T06:11:24.801Z,6.30
2024-03-10T06:14:13.351Z,6.34
2024-03-10T06:17:02.017Z,6.36
2024-03-10T06:20:07.585Z,6.37
2024-03-10T06:23:13.265Z,6.42
2024-03-10T06:26:01.078Z,6.47
2024-03-10T06:28:51.189Z,6.60
2024-03-10T06:31:38.678Z,6.73
2024-03-10T06:34:26.229Z,6.88
2024-03-10T06:37:14.054Z,7.03
2024-03-10T06:40:02.174Z,7.17
2024-03-10T06:42:49.135Z,7.28
2024-03-10T06:45:35.677Z,7.38
2024-03-10T06:48:22.602Z,7.44
2024-03-10T06:51:09.495Z,7.49
2024-03-10T06:53:56.371Z,7.54
2024-03-10T06:56:43.312Z,7.60
2024-03-10T06:59:31.109Z,7.62
2024-03-10T07:02:23.466Z,7.60
2024-03-10T07:05:10.379Z,7.54
2024-03-10T07:07:57.950Z,7.54
2024-03-10T07:10:44.725Z,7.57
2024-03-10T07:13:31.423Z,7.63
2024-03-10T07:16:18.616Z,7.68
2024-03-10T07:19:05.368Z,7.75
2024-03-10T07:21:52.662Z,7.83
2024-03-10T07:24:39.390Z,7.92
2024-03-10T07:27:26.457Z,8.03
2024-03-10T07:30:14.106Z,8.17
2024-03-10T07:33:00.909Z,8.31
2024-03-10T07:35:47.504Z,8.45
2024-03-10T07:38:34.144Z,8.60
2024-03-10T07:41:21.100Z,8.76
2024-03-10T07:44:08.065Z,8.90
2024-03-10T07:46:55.142Z,9.00
2024-03-10T07:49:42.115Z,9.08
2024-03-10T07:52:29.090Z,9.17
2024-03-10T07:55:17.954Z,9.32
2024-03-10T07:58:09.337Z,9.49
2024-03-10T08:00:56.173Z,9.65
2024-03-10T08:03:42.955Z,9.79
2024-03-10T08:06:29.968Z,9.95
2024-03-10T08:09:16.929Z,10.08
2024-03-10T08:12:05.780Z,10.18
2024-03-10T08:14:54.511Z,10.31
2024-03-10T08:17:43.010Z,10.48
2024-03-10T08:20:30.746Z,10.70
2024-03-10T08:23:18.661Z,10.91
2024-03-10T08:26:05.842Z,11.06
2024-03-10T08:28:52.619Z,11.20
2024-03-10T08:31:39.737Z,11.32
2024-03-10T08:34:28.154Z,11.35
2024-03-10T08:37:18.335Z,11.37
2024-03-10T08:40:15.736Z,11.37
2024-03-10T08:43:05.387Z,11.44
2024-03-10T08:45:52.828Z,11.49
2024-03-10T08:48:40.008Z,11.52
2024-03-10T08:51:29.213Z,11.54
2024-03-10T08:54:16.707Z,11.54
2024-03-10T08:57:05.687Z,11.57
2024-03-10T08:59:54.615Z,11.56
2024-03-10T09:02:42.206Z,11.54
2024-03-10T09:05:30.734Z,11.49
2024-03-10T09:08:17.847Z,11.45
2024-03-10T09:11:08.124Z,11.46
2024-03-10T09:13:56.389Z,11.63
2024-03-10T09:16:44.693Z,11.82
2024-03-10T09:19:31.914Z,11.96
2024-03-10T09:22:18.904Z,12.07
2024-03-10T09:25:08.434Z,12.14
2024-03-10T09:27:55.510Z,12.24
2024-03-10T09:30:43.076Z,12.38
2024-03-10T09:33:30.971Z,12.39
2024-03-10T09:36:18.815Z,12.30
2024-03-10T09:39:05.636Z,12.25
2024-03-10T09:41:55.215Z,12.26
2024-03-10T09:44:46.511Z,12.26
2024-03-10T09:47:34.919Z,12.23
2024-03-10T09:50:25.624Z,12.25
2024-03-10T09:53:13.519Z,12.30
2024-03-10T09:56:00.364Z,12.35
2024-03-10T09:58:51.656Z,12.44
2024-03-10T10:01:38.883Z,12.53
2024-03-10T10:04:27.174Z,12.66
2024-03-10T10:07:14.611Z,12.71
2024-03-10T10:10:02.050Z,12.67
2024-03-10T10:12:50.621Z,12.67
2024-03-10T10:15:37.567Z,12.78
2024-03-10T10:18:27.266Z,12.89
2024-03-10T10:21:16.843Z,12.99
2024-03-10T10:24:05.430Z,13.01
2024-03-10T10:27:05.680Z,13.08
2024-03-10T10:29:54.558Z,13.15
2024-03-10T10:32:43.098Z,13.21
2024-03-10T10:35:29.899Z,13.22
2024-03-10T10:38:16.591Z,13.26
2024-03-10T10:41:03.607Z,13.32
2024-03-10T10:43:51.303Z,13.34
2024-03-10T10:46:39.895Z,13.39
2024-03-10T10:49:27.308Z,13.45
2024-03-10T10:52:14.594Z,13.51
2024-03-10T10:55:07.827Z,13.54
2024-03-10T10:58:05.430Z,13.54
2024-03-10T11:00:55.459Z,13.65
2024-03-10T11:03:42.555Z,13.78
2024-03-10T11:06:32.825Z,13.88
2024-03-10T11:09:32.281Z,13.99
2024-03-10T11:12:22.617Z,14.05
2024-03-10T11:15:10.963Z,14.18
2024-03-10T11:17:58.102Z,14.31
2024-03-10T11:20:45.695Z,14.25
2024-03-10T11:23:52.907Z,14.13
2024-03-10T11:26:40.268Z,14.04
2024-03-10T11:29:28.538Z,13.98
2024-03-10T11:32:35.480Z,13.95
2024-03-10T11:35:23.918Z,13.98
2024-03-10T11:38:12.687Z,13.97
2024-03-10T11:41:01.842Z,13.89
2024-03-10T11:43:50.442Z,13.86
2024-03-10T11:46:37.297Z,13.88
2024-03-10T11:49:24.564Z,13.93
2024-03-10T11:52:13.462Z,13.95
2024-03-10T11:55:00.902Z,13.98
2024-03-10T11:57:57.065Z,14.01
2024-03-10T12:00:44.294Z,14.07
2024-03-10T12:03:36.258Z,14.12
2024-03-10T12:06:27.749Z,14.13
2024-03-10T12:09:24.054Z,14.11
2024-03-10T12:12:23.292Z,14.06
2024-03-10T12:15:25.855Z,14.03
2024-03-10T12:18:14.057Z,14.02
2024-03-10T12:21:01.819Z,14.05
2024-03-10T12:23:48.814Z,14.05
2024-03-10T12:26:38.420Z,14.07
2024-03-10T12:29:31.903Z,14.12
2024-03-10T12:32:24.531Z,14.15
2024-03-10T12:35:11.778Z,14.20
2024-03-10T12:38:03.621Z,14.25
2024-03-10T12:40:50.815Z,14.34
2024-03-10T12:43:45.751Z,14.40
2024-03-10T12:46:41.934Z,14.49
2024-03-10T12:49:28.812Z,14.58
2024-03-10T12:52:32.006Z,14.62
2024-03-10T12:55:22.553Z,14.61
2024-03-10T12:58:09.533Z,14.58
2024-03-10T13:00:56.770Z,14.61
2024-03-10T13:03:45.250Z,14.67
2024-03-10T13:06:32.732Z,14.74
2024-03-10T13:09:19.573Z,14.75
2024-03-10T13:12:07.841Z,14.73
2024-03-10T13:14:55.083Z,14.74
2024-03-10T13:17:43.395Z,14.81
2024-03-10T13:20:30.379Z,14.81
2024-03-10T13:23:17.643Z,14.82
2024-03-10T13:26:05.115Z,14.74
2024-03-10T13:28:52.364Z,14.67
2024-03-10T13:31:39.138Z,14.64
2024-03-10T13:34:26.471Z,14.57
2024-03-10T13:37:13.488Z,14.51
2024-03-10T13:40:12.926Z,14.47
2024-03-10T13:42:59.936Z,14.46
2024-03-10T13:45:46.602Z,14.43
2024-03-10T13:48:35.134Z,14.41
2024-03-10T13:51:28.624Z,14.39
2024-03-10T13:54:15.947Z,14.35
2024-03-10T13:57:02.694Z,14.34
2024-03-10T13:59:50.569Z,14.32
2024-03-10T14:02:37.265Z,14.31
2024-03-10T14:05:24.294Z,14.37
2024-03-10T14:08:11.204Z,14.43
2024-03-10T14:10:57.924Z,14.44
2024-03-10T14:13:46.361Z,14.44
2024-03-10T14:16:35.484Z,14.41
2024-03-10T14:19:22.052Z,14.35
2024-03-10T14:22:09.620Z,14.30
2024-03-10T14:24:56.764Z,14.21
2024-03-10T14:27:55.568Z,14.17
2024-03-10T14:30:43.093Z,14.17
2024-03-10T14:33:39.713Z,14.17
2024-03-10T14:36:26.623Z,14.13
2024-03-10T14:39:14.448Z,14.13
2024-03-10T14:42:01.575Z,14.14
2024-03-10T14:44:49.424Z,14.16
2024-03-10T14:47:40.724Z,14.15
2024-03-10T14:50:35.313Z,14.15
2024-03-10T14:53:22.866Z,14.15
2024-03-10T14:56:09.847Z,14.14
2024-03-10T14:58:58.409Z,14.17
2024-03-10T15:01:46.326Z,14.16
2024-03-10T15:04:32.999Z,14.11
2024-03-10T15:07:23.946Z,14.10
2024-03-10T15:10:15.547Z,14.13
2024-03-10T15:13:03.721Z,14.13
2024-03-10T15:15:52.044Z,14.09
2024-03-10T15:18:39.445Z,14.09
2024-03-10T15:21:27.782Z,14.07
2024-03-10T15:24:16.429Z,14.01
2024-03-10T15:27:08.076Z,13.94
2024-03-10T15:29:55.881Z,13.89
2024-03-10T15:32:43.106Z,13.84
2024-03-10T15:35:29.875Z,13.80
2024-03-10T15:38:16.799Z,13.76
2024-03-10T15:41:05.822Z,13.71
2024-03-10T15:43:52.814Z,13.65
2024-03-10T15:46:39.521Z,13.59
2024-03-10T15:49:26.427Z,13.54
2024-03-10T15:52:13.491Z,13.47
2024-03-10T15:55:00.665Z,13.40
2024-03-10T15:57:50.908Z,13.35
2024-03-10T16:00:38.853Z,13.32
2024-03-10T16:03:33.495Z,13.31
2024-03-10T16:06:23.756Z,13.30
2024-03-10T16:09:12.475Z,13.28
2024-03-10T16:12:00.402Z,13.22
2024-03-10T16:14:48.381Z,13.14
2024-03-10T16:17:35.628Z,13.08
2024-03-10T16:20:23.367Z,13.04
2024-03-10T16:23:10.540Z,13.02
2024-03-10T16:25:57.995Z,12.99
2024-03-10T16:28:45.868Z,12.96
2024-03-10T16:31:32.600Z,12.87
2024-03-10T16:34:23.157Z,12.76
2024-03-10T16:37:26.109Z,12.66
2024-03-10T16:40:17.001Z,12.58
2024-03-10T16:43:04.977Z,12.52
2024-03-10T16:45:52.168Z,12.45
2024-03-10T16:48:40.742Z,12.41
2024-03-10T16:51:32.198Z,12.36
2024-03-10T16:54:21.560Z,12.31
2024-03-10T16:57:08.442Z,12.27
2024-03-10T16:59:55.652Z,12.26
2024-03-10T17:02:46.156Z,12.25
2024-03-10T17:05:37.889Z,12.23
2024-03-10T17:08:25.152Z,12.20
2024-03-10T17:11:12.858Z,12.17
2024-03-10T17:14:00.008Z,12.10
2024-03-10T17:16:47.722Z,12.03
2024-03-10T17:19:38.196Z,11.96
2024-03-10T17:22:26.478Z,11.92
2024-03-10T17:25:16.925Z,11.89
2024-03-10T17:28:05.776Z,11.84
2024-03-10T17:30:55.851Z,11.80
2024-03-10T17:33:43.869Z,11.76
2024-03-10T17:36:35.162Z,11.71
2024-03-10T17:39:23.936Z,11.66
2024-03-10T17:42:13.634Z,11.62
2024-03-10T17:45:02.158Z,11.57
2024-03-10T17:47:49.646Z,11.52
2024-03-10T17:50:41.411Z,11.46
2024-03-10T17:53:28.906Z,11.42
2024-03-10T17:56:18.830Z,11.35
2024-03-10T17:59:08.955Z,11.29
2024-03-10T18:01:57.649Z,11.25
2024-03-10T18:04:44.667Z,11.20
2024-03-10T18:07:35.122Z,11.16
2024-03-10T18:10:22.771Z,11.12
2024-03-10T18:13:10.994Z,11.09
2024-03-10T18:16:00.092Z,11.05
2024-03-10T18:18:48.667Z,11.02
2024-03-10T18:21:35.429Z,10.97
2024-03-10T18:24:22.466Z,10.90
2024-03-10T18:27:11.312Z,10.85
2024-03-10T18:29:58.393Z,10.82
2024-03-10T18:32:45.486Z,10.80
2024-03-10T18:35:35.240Z,10.74
2024-03-10T18:38:22.085Z,10.68
2024-03-10T18:41:08.999Z,10.66
2024-03-10T18:43:57.810Z,10.67
2024-03-10T18:46:44.723Z,10.69
2024-03-10T18:49:32.922Z,10.72
2024-03-10T18:52:21.907Z,10.71
2024-03-10T18:55:14.752Z,10.66
2024-03-10T18:58:02.086Z,10.62
2024-03-10T19:00:53.317Z,10.61
2024-03-10T19:03:46.212Z,10.59
2024-03-10T19:06:34.905Z,10.56
2024-03-10T19:09:32.127Z,10.51
2024-03-10T19:12:29.464Z,10.45
2024-03-10T19:15:17.419Z,10.39
2024-03-10T19:18:05.570Z,10.36
2024-03-10T19:20:54.130Z,10.39
2024-03-10T19:23:43.373Z,10.41
2024-03-10T19:26:39.012Z,10.37
2024-03-10T19:29:30.813Z,10.35
2024-03-10T19:32:21.149Z,10.31
2024-03-10T19:35:15.225Z,10.28
2024-03-10T19:38:09.884Z,10.25
2024-03-10T19:41:00.657Z,10.17
2024-03-10T19:43:52.674Z,10.16
2024-03-10T19:46:53.472Z,10.13
2024-03-10T19:49:42.410Z,10.07
2024-03-10T19:52:38.593Z,10.02
2024-03-10T19:55:29.833Z,10.00
2024-03-10T19:58:19.722Z,10.01
2024-03-10T20:01:14.736Z,10.02
2024-03-10T20:04:05.910Z,10.01
2024-03-10T20:07:00.495Z,10.00
2024-03-10T20:09:50.965Z,9.95
2024-03-10T20:12:41.866Z,9.90
2024-03-10T20:15:29.956Z,9.88
2024-03-10T20:18:21.292Z,9.87
2024-03-10T20:21:09.085Z,9.81
2024-03-10T20:23:57.749Z,9.81
2024-03-10T20:26:49.559Z,9.81
2024-03-10T20:29:38.723Z,9.83
2024-03-10T20:32:29.487Z,9.77
2024-03-10T20:35:18.802Z,9.72
2024-03-10T20:38:09.571Z,9.74
2024-03-10T20:40:59.487Z,9.70
2024-03-10T20:43:51.911Z,9.68
2024-03-10T20:46:41.327Z,9.70
2024-03-10T20:49:31.681Z,9.68
2024-03-10T20:52:24.334Z,9.65
2024-03-10T20:55:12.379Z,9.62
2024-03-10T20:58:01.188Z,9.56
2024-03-10T21:00:51.081Z,9.52
2024-03-10T21:03:40.335Z,9.48
2024-03-10T21:06:27.805Z,9.45
2024-03-10T21:09:22.688Z,9.46
2024-03-10T21:12:11.315Z,9.42
2024-03-10T21:15:05.040Z,9.42
2024-03-10T21:18:17.058Z,9.40
2024-03-10T21:21:25.505Z,9.41
2024-03-10T21:24:18.782Z,9.45
2024-03-10T21:27:14.722Z,9.48
2024-03-10T21:30:03.091Z,9.47
2024-03-10T21:32:59.617Z,9.47
2024-03-10T21:35:49.582Z,9.45
2024-03-10T21:38:51.085Z,9.45
2024-03-10T21:41:39.404Z,9.44
2024-03-10T21:44:27.643Z,9.43
2024-03-10T21:47:16.048Z,9.39
2024-03-10T21:50:19.820Z,9.33
2024-03-10T21:53:10.134Z,9.35
2024-03-10T21:56:07.192Z,9.37
2024-03-10T21:58:53.901Z,9.40
2024-03-10T22:01:40.856Z,9.39
2024-03-10T22:04:28.036Z,9.37
2024-03-10T22:07:15.124Z,9.38
2024-03-10T22:10:02.072Z,9.41
2024-03-10T22:12:49.148Z,9.45
2024-03-10T22:15:36.078Z,9.47
2024-03-10T22:18:23.137Z,9.44
2024-03-10T22:21:12.052Z,9.40
2024-03-10T22:23:58.740Z,9.37
2024-03-10T22:26:46.212Z,9.37
2024-03-10T22:29:33.306Z,9.39
2024-03-10T22:32:22.919Z,9.39
2024-03-10T22:35:10.328Z,9.40
2024-03-10T22:37:59.338Z,9.37
2024-03-10T22:40:48.686Z,9.35
2024-03-10T22:43:37.127Z,9.33
2024-03-10T22:46:24.262Z,9.31
2024-03-10T22:49:11.554Z,9.29
2024-03-10T22:51:58.639Z,9.27
2024-03-10T22:54:45.622Z,9.26
2024-03-10T22:57:32.735Z,9.28
2024-03-10T23:00:25.670Z,9.28
2024-03-10T23:03:16.703Z,9.25
2024-03-10T23:06:05.507Z,9.24
2024-03-10T23:08:53.422Z,9.23
2024-03-10T23:11:41.494Z,9.24
2024-03-10T23:14:28.730Z,9.23
2024-03-10T23:17:15.795Z,9.19
2024-03-10T23:20:08.412Z,9.17
2024-03-10T23:22:58.202Z,9.16
2024-03-10T23:25:46.144Z,9.16
2024-03-10T23:28:33.629Z,9.20
2024-03-10T23:31:20.145Z,9.20
2024-03-10T23:34:07.454Z,9.18
2024-03-10T23:36:53.988Z,9.15
2024-03-10T23:39:41.138Z,9.11
2024-03-10T23:42:28.188Z,9.08
2024-03-10T23:45:15.792Z,9.05
2024-03-10T23:48:02.970Z,9.02
2024-03-10T23:50:51.390Z,8.99
2024-03-10T23:53:41.291Z,9.00
2024-03-10T23:56:30.142Z,9.02
2024-03-10T23:59:17.639Z,9.04
